PAFR METAR and TAF weather

Enter ICAO airport designator
Station Type Date Time Source
PAFR METAR 2019/10/20 19:58 UTC NOAA

PAFR 201958Z AUTO 01005KT 10SM FEW075 SCT090 OVC110 M01/M01 A2964 RMK AO2 SLP046 T10061009 $


Station Type Date Time Source
PAFR Decoded METAR 2019/10/20 19:58 UTC NOAA

Ft. Richardson / Bryant U. S. Army Heliport, Ak, AK, United States (PAFR) 61-16N 149-39W 115M
Oct 20, 2019 - 03:58 PM EDT / 2019.10.20 1958 UTC
Wind: from the N (010 degrees) at 6 MPH (5 KT):0
Visibility: 10 mile(s):0
Sky conditions: overcast
Temperature: 30.9 F (-0.6 C)
Windchill: 24 F (-4 C):1
Dew Point: 30.4 F (-0.9 C)
Relative Humidity: 97%
Pressure (altimeter): 29.64 in. Hg (1003 hPa)
ob: PAFR 201958Z AUTO 01005KT 10SM FEW075 SCT090 OVC110 M01/M01 A2964 RMK AO2 SLP046 T10061009
cycle: 20

Station Type Date Time Source
PAFR TAF UTC NOAA

Error!

Example: see airport list